Terminal Aerodrome Forecast
Issued by NWS

Home | Current Version | Previous Version | Text Only | Print | Product List | Glossary On
Versions: 1 2 3 4 5 6 7 8 9 10 11 12 13 14 15 16 17 18 19 20 21 22 23 24
280
FTUS46 KPDT 131725
TAFYKM
TAF
KYKM 131725Z 1318/1418 VRB04KT 1/4SM FG VV002
      TEMPO 1318/1322 4SM BR OVC005
     FM132200 20006KT 4SM BR VCSH SCT050 OVC070
     FM140000 20006KT 6SM -SHRA BR OVC050
     FM140600 28005KT 3SM BR VCSH OVC070=

USA.gov is the U.S. government's official web portal to all federal, state and local government web resources and services.